createdAt,value
2023-03-02T00:00:33.791Z,53.36
2023-03-02T00:02:39.673Z,53.38
2023-03-02T00:04:47.356Z,53.48
2023-03-02T00:06:51.721Z,53.17
2023-03-02T00:08:54.092Z,53.12
2023-03-02T00:10:58.342Z,53.08
2023-03-02T00:13:00.507Z,53.15
2023-03-02T00:15:05.696Z,52.88
2023-03-02T00:17:10.816Z,52.83
2023-03-02T00:19:12.816Z,52.53
2023-03-02T00:21:15.372Z,52.62
2023-03-02T00:23:17.329Z,52.58
2023-03-02T00:25:19.781Z,52.48
2023-03-02T00:27:24.813Z,52.54
2023-03-02T00:29:27.379Z,52.04
2023-03-02T00:31:29.492Z,52.00
2023-03-02T00:33:33.142Z,51.79
2023-03-02T00:35:40.077Z,52.02
2023-03-02T00:37:42.206Z,52.00
2023-03-02T00:39:44.475Z,51.88
2023-03-02T00:41:47.675Z,51.52
2023-03-02T00:43:51.208Z,51.93
2023-03-02T00:45:55.715Z,51.76
2023-03-02T00:47:58.082Z,51.58
2023-03-02T00:50:00.152Z,51.56
2023-03-02T00:52:02.893Z,51.79
2023-03-02T00:54:06.525Z,51.61
2023-03-02T00:56:11.705Z,51.58
2023-03-02T00:58:14.125Z,51.66
2023-03-02T01:00:16.810Z,51.88
2023-03-02T01:02:21.617Z,52.17
2023-03-02T01:04:31.016Z,52.01
2023-03-02T01:06:33.473Z,51.87
2023-03-02T01:08:38.169Z,51.95
2023-03-02T01:10:41.274Z,52.14
2023-03-02T01:12:43.380Z,51.90
2023-03-02T01:14:48.278Z,51.72
2023-03-02T01:16:50.420Z,52.21
2023-03-02T01:18:54.623Z,52.42
2023-03-02T01:21:03.217Z,51.72
2023-03-02T01:23:05.455Z,52.28
2023-03-02T01:25:08.757Z,52.07
2023-03-02T01:27:11.041Z,51.96
2023-03-02T01:29:15.429Z,51.81
2023-03-02T01:31:17.688Z,52.04
2023-03-02T01:33:20.021Z,52.36
2023-03-02T01:35:22.153Z,52.27
2023-03-02T01:37:27.141Z,52.38
2023-03-02T01:39:29.286Z,52.46
2023-03-02T01:41:31.870Z,52.82
2023-03-02T01:43:34.047Z,52.50
2023-03-02T01:45:45.816Z,52.56
2023-03-02T01:47:48.033Z,53.18
2023-03-02T01:49:57.140Z,52.75
2023-03-02T01:51:59.409Z,53.16
2023-03-02T01:54:08.696Z,53.35
2023-03-02T01:56:10.961Z,53.16
2023-03-02T01:58:15.668Z,53.01
2023-03-02T02:00:24.884Z,52.94
2023-03-02T02:02:29.941Z,53.23
2023-03-02T02:04:33.828Z,52.87
2023-03-02T02:06:40.852Z,52.99
2023-03-02T02:08:43.210Z,52.75
2023-03-02T02:10:45.312Z,53.00
2023-03-02T02:12:47.332Z,53.20
2023-03-02T02:14:55.362Z,53.48
2023-03-02T02:17:00.198Z,53.50
2023-03-02T02:19:04.345Z,53.01
2023-03-02T02:21:08.171Z,53.37
2023-03-02T02:23:16.644Z,53.22
2023-03-02T02:25:24.928Z,53.46
2023-03-02T02:27:30.079Z,53.29
2023-03-02T02:29:36.031Z,53.43
2023-03-02T02:31:46.853Z,53.49
2023-03-02T02:33:51.939Z,53.53
2023-03-02T02:35:58.331Z,53.70
2023-03-02T02:38:05.549Z,53.92
2023-03-02T02:40:15.800Z,53.51
2023-03-02T02:42:26.444Z,53.89
2023-03-02T02:44:28.418Z,53.73
2023-03-02T02:46:31.951Z,53.93
2023-03-02T02:48:34.677Z,54.17
2023-03-02T02:50:38.113Z,54.02
2023-03-02T02:52:41.679Z,54.16
2023-03-02T02:54:46.797Z,53.92
2023-03-02T02:56:50.418Z,54.10
2023-03-02T02:58:56.199Z,54.46
2023-03-02T03:00:59.276Z,54.19
2023-03-02T03:03:29.354Z,54.04
2023-03-02T03:05:31.240Z,53.82
2023-03-02T03:07:33.321Z,54.07
2023-03-02T03:09:35.271Z,53.68
2023-03-02T03:11:41.953Z,54.10
2023-03-02T03:13:44.871Z,53.59
2023-03-02T03:15:46.658Z,54.27
2023-03-02T03:17:55.437Z,54.62
2023-03-02T03:20:06.292Z,54.17
2023-03-02T03:22:11.935Z,54.38
2023-03-02T03:24:13.924Z,54.44
2023-03-02T03:26:16.654Z,54.41
2023-03-02T03:28:18.699Z,54.66
2023-03-02T03:30:20.567Z,54.24
2023-03-02T03:32:22.962Z,54.50
2023-03-02T03:34:25.926Z,54.32
2023-03-02T03:36:30.942Z,54.87
2023-03-02T03:38:32.929Z,54.65
2023-03-02T03:40:34.932Z,54.57
2023-03-02T03:42:37.990Z,54.30
2023-03-02T03:44:39.846Z,55.00
2023-03-02T03:46:41.714Z,55.05
2023-03-02T03:48:44.363Z,55.15
2023-03-02T03:50:46.225Z,54.88
2023-03-02T03:52:48.148Z,55.34
2023-03-02T03:54:52.157Z,55.19
2023-03-02T03:56:56.246Z,55.32
2023-03-02T03:59:06.921Z,54.92
2023-03-02T04:01:08.828Z,55.13
2023-03-02T04:03:10.665Z,55.42
2023-03-02T04:05:13.550Z,55.28
2023-03-02T04:07:15.610Z,55.01
2023-03-02T04:09:19.953Z,55.37
2023-03-02T04:11:22.572Z,54.98
2023-03-02T04:13:26.493Z,55.30
2023-03-02T04:15:28.386Z,55.50
2023-03-02T04:17:30.224Z,55.73
2023-03-02T04:19:32.844Z,56.11
2023-03-02T04:21:35.157Z,56.08
2023-03-02T04:23:36.955Z,56.45
2023-03-02T04:25:38.816Z,56.04
2023-03-02T04:27:41.137Z,55.70
2023-03-02T04:29:44.850Z,56.26
2023-03-02T04:31:48.673Z,56.47
2023-03-02T04:33:51.475Z,55.96
2023-03-02T04:35:54.725Z,56.52
2023-03-02T04:37:56.629Z,56.29
2023-03-02T04:39:58.587Z,56.84
2023-03-02T04:42:02.731Z,56.50
2023-03-02T04:44:07.702Z,56.46
2023-03-02T04:46:15.153Z,56.83
2023-03-02T04:48:17.328Z,56.63
2023-03-02T04:50:19.408Z,56.46
2023-03-02T04:52:22.295Z,56.39
2023-03-02T04:54:26.292Z,56.13
2023-03-02T04:56:28.847Z,56.88
2023-03-02T04:58:30.716Z,56.35
2023-03-02T05:00:34.262Z,56.63
2023-03-02T05:02:36.222Z,56.52
2023-03-02T05:04:38.226Z,56.52
2023-03-02T05:06:40.203Z,56.92
2023-03-02T05:08:42.840Z,56.36
2023-03-02T05:10:46.734Z,56.95
2023-03-02T05:12:53.674Z,57.19
2023-03-02T05:14:55.483Z,57.25
2023-03-02T05:16:57.679Z,57.45
2023-03-02T05:19:03.194Z,57.07
2023-03-02T05:21:05.289Z,56.92
2023-03-02T05:23:09.363Z,56.83
2023-03-02T05:25:11.524Z,56.68
2023-03-02T05:27:13.425Z,57.14
2023-03-02T05:29:15.248Z,56.93
2023-03-02T05:31:23.336Z,57.60
2023-03-02T05:33:25.361Z,57.84
2023-03-02T05:35:28.459Z,57.66
2023-03-02T05:37:30.340Z,58.00
2023-03-02T05:39:32.418Z,57.09
2023-03-02T05:41:34.972Z,57.54
2023-03-02T05:43:36.830Z,57.40
2023-03-02T05:45:39.289Z,57.81
2023-03-02T05:47:41.251Z,57.46
2023-03-02T05:49:43.058Z,57.63
2023-03-02T05:51:44.974Z,57.16
2023-03-02T05:53:46.916Z,57.90
2023-03-02T05:55:49.217Z,57.77
2023-03-02T05:57:51.052Z,57.53
2023-03-02T05:59:52.991Z,57.47
2023-03-02T06:01:59.055Z,57.87
2023-03-02T06:04:01.166Z,57.86
2023-03-02T06:06:03.099Z,58.30
2023-03-02T06:08:05.939Z,58.43
2023-03-02T06:10:10.450Z,58.01
2023-03-02T06:12:12.331Z,58.19
2023-03-02T06:14:14.280Z,58.05
2023-03-02T06:16:16.249Z,58.58
2023-03-02T06:18:20.478Z,57.93
2023-03-02T06:20:22.436Z,58.28
2023-03-02T06:22:24.572Z,58.56
2023-03-02T06:24:26.565Z,58.40
2023-03-02T06:26:28.576Z,58.25
2023-03-02T06:28:31.801Z,58.95
2023-03-02T06:30:34.713Z,59.26
2023-03-02T06:32:36.692Z,59.04
2023-03-02T06:34:40.821Z,58.90
2023-03-02T06:36:43.087Z,58.28
2023-03-02T06:38:45.585Z,58.44
2023-03-02T06:40:47.507Z,58.49
2023-03-02T06:42:49.399Z,58.74
2023-03-02T06:44:51.953Z,58.35
2023-03-02T06:46:53.860Z,58.03
2023-03-02T06:48:55.807Z,58.31
2023-03-02T06:50:57.678Z,58.03
2023-03-02T06:52:59.915Z,58.09
2023-03-02T06:55:01.884Z,58.45
2023-03-02T06:57:04.302Z,58.16
2023-03-02T06:59:06.326Z,58.63
2023-03-02T07:01:08.304Z,58.42
2023-03-02T07:03:10.151Z,58.22
2023-03-02T07:05:12.876Z,58.71
2023-03-02T07:07:14.776Z,57.93
2023-03-02T07:09:18.809Z,58.11
2023-03-02T07:11:20.863Z,58.34
2023-03-02T07:13:22.836Z,58.31
2023-03-02T07:15:24.902Z,57.66
2023-03-02T07:17:27.085Z,57.95
2023-03-02T07:19:28.943Z,58.05
2023-03-02T07:21:31.117Z,57.51
2023-03-02T07:23:33.894Z,57.64
2023-03-02T07:25:37.108Z,58.14
2023-03-02T07:27:39.247Z,58.19
2023-03-02T07:29:41.558Z,57.96
2023-03-02T07:31:44.406Z,58.07
2023-03-02T07:33:46.331Z,58.12
2023-03-02T07:35:48.965Z,57.85
2023-03-02T07:37:53.026Z,57.44
2023-03-02T07:39:54.958Z,57.34
2023-03-02T07:42:00.070Z,57.42
2023-03-02T07:44:06.870Z,57.46
2023-03-02T07:46:09.150Z,57.32
2023-03-02T07:48:11.160Z,57.20
2023-03-02T07:50:13.273Z,56.99
2023-03-02T07:52:15.473Z,57.30
2023-03-02T07:54:17.332Z,57.54
2023-03-02T07:56:20.576Z,57.59
2023-03-02T07:58:23.212Z,57.08
2023-03-02T08:00:25.555Z,57.55
2023-03-02T08:02:28.459Z,56.99
2023-03-02T08:04:30.756Z,56.92
2023-03-02T08:06:32.728Z,56.82
2023-03-02T08:08:35.329Z,56.69
2023-03-02T08:10:40.036Z,56.77
2023-03-02T08:12:43.109Z,56.86
2023-03-02T08:14:48.085Z,56.61
2023-03-02T08:16:52.430Z,56.62
2023-03-02T08:18:54.631Z,56.92
2023-03-02T08:20:58.033Z,56.63
2023-03-02T08:23:00.127Z,56.48
2023-03-02T08:25:02.502Z,56.66
2023-03-02T08:27:05.096Z,56.34
2023-03-02T08:29:08.067Z,56.36
2023-03-02T08:31:10.692Z,56.50
2023-03-02T08:33:12.933Z,56.24
2023-03-02T08:35:17.624Z,56.31
2023-03-02T08:37:20.026Z,56.29
2023-03-02T08:39:23.756Z,56.00
2023-03-02T08:41:26.347Z,56.15
2023-03-02T08:43:28.522Z,55.99
2023-03-02T08:45:30.619Z,56.03
2023-03-02T08:47:32.771Z,55.87
2023-03-02T08:49:34.879Z,55.82
2023-03-02T08:51:37.110Z,55.77
2023-03-02T08:53:41.756Z,55.61
2023-03-02T08:55:43.782Z,55.49
2023-03-02T08:57:45.825Z,55.39
2023-03-02T08:59:47.924Z,55.74
2023-03-02T09:01:50.770Z,55.64
2023-03-02T09:04:06.022Z,55.29
2023-03-02T09:06:08.353Z,55.59
2023-03-02T09:08:14.319Z,55.27
2023-03-02T09:10:16.476Z,55.58
2023-03-02T09:12:18.526Z,55.03
2023-03-02T09:14:47.030Z,54.55
2023-03-02T09:16:49.394Z,54.43
2023-03-02T09:18:52.392Z,54.66
2023-03-02T09:20:54.446Z,54.46
2023-03-02T09:22:56.600Z,53.98
2023-03-02T09:24:58.972Z,53.60
2023-03-02T09:27:00.956Z,53.73
2023-03-02T09:29:03.133Z,53.47
2023-03-02T09:31:07.657Z,53.51
2023-03-02T09:33:11.934Z,53.76
2023-03-02T09:35:16.271Z,53.62
2023-03-02T09:37:18.353Z,53.63
2023-03-02T09:39:20.296Z,53.11
2023-03-02T09:41:23.086Z,52.83
2023-03-02T09:43:33.402Z,52.49
2023-03-02T09:45:39.366Z,52.67
2023-03-02T09:47:46.007Z,51.95
2023-03-02T09:49:59.694Z,52.13
2023-03-02T09:52:12.374Z,52.20
2023-03-02T09:54:19.577Z,52.25
2023-03-02T09:56:25.104Z,51.93
2023-03-02T09:58:32.172Z,51.92
2023-03-02T10:00:37.275Z,51.74
2023-03-02T10:02:47.386Z,51.86
2023-03-02T10:04:53.523Z,51.88
2023-03-02T10:07:00.109Z,51.72
2023-03-02T10:09:02.314Z,51.43
2023-03-02T10:11:10.857Z,51.12
2023-03-02T10:13:20.594Z,50.76
2023-03-02T10:15:31.915Z,50.10
2023-03-02T10:17:42.779Z,49.88
2023-03-02T10:19:47.497Z,49.82
2023-03-02T10:21:58.471Z,50.04
2023-03-02T10:24:09.880Z,50.18
2023-03-02T10:26:19.678Z,49.86
2023-03-02T10:28:29.682Z,49.43
2023-03-02T10:30:35.657Z,49.77
2023-03-02T10:32:45.644Z,48.31
2023-03-02T10:34:50.163Z,47.98
2023-03-02T10:36:52.179Z,47.98
2023-03-02T10:38:55.310Z,47.47
2023-03-02T10:41:02.648Z,48.08
2023-03-02T10:43:07.401Z,47.76
2023-03-02T10:45:22.652Z,47.77
2023-03-02T10:47:28.812Z,47.94
2023-03-02T10:49:33.652Z,47.48
2023-03-02T10:51:35.750Z,47.55
2023-03-02T10:53:37.838Z,47.97
2023-03-02T10:55:47.157Z,46.20
2023-03-02T10:58:01.881Z,46.70
2023-03-02T11:00:12.414Z,46.29
2023-03-02T11:02:24.144Z,46.17
2023-03-02T11:04:26.303Z,45.69
2023-03-02T11:06:29.910Z,46.16
2023-03-02T11:08:33.125Z,45.78
2023-03-02T11:10:39.809Z,45.23
2023-03-02T11:12:47.809Z,45.04
2023-03-02T11:14:49.928Z,45.16
2023-03-02T11:16:53.535Z,44.81
2023-03-02T11:18:58.453Z,44.23
2023-03-02T11:21:05.993Z,43.67
2023-03-02T11:23:14.629Z,43.78
2023-03-02T11:25:28.763Z,43.29
2023-03-02T11:27:36.874Z,43.46
2023-03-02T11:29:44.612Z,43.56
2023-03-02T11:31:50.748Z,42.90
2023-03-02T11:34:11.791Z,42.95
2023-03-02T11:36:24.891Z,42.98
2023-03-02T11:38:30.779Z,42.98
2023-03-02T11:40:40.371Z,43.05
2023-03-02T11:42:45.845Z,42.79
2023-03-02T11:44:49.464Z,42.62
2023-03-02T11:47:01.322Z,42.26
2023-03-02T11:49:13.572Z,42.79
2023-03-02T11:51:22.421Z,41.77
2023-03-02T11:53:31.799Z,41.88
2023-03-02T11:55:41.071Z,41.46
2023-03-02T11:57:49.700Z,41.74
2023-03-02T11:59:54.292Z,40.89
2023-03-02T12:01:59.718Z,40.99
2023-03-02T12:04:08.737Z,41.74
2023-03-02T12:06:17.580Z,40.57
2023-03-02T12:08:20.374Z,40.90
2023-03-02T12:10:28.738Z,40.38
2023-03-02T12:12:36.812Z,40.21
2023-03-02T12:14:45.337Z,39.89
2023-03-02T12:16:47.618Z,40.32
2023-03-02T12:18:51.958Z,39.94
2023-03-02T12:21:00.397Z,40.48
2023-03-02T12:23:08.072Z,39.73
2023-03-02T12:25:16.253Z,40.40
2023-03-02T12:27:25.571Z,39.83
2023-03-02T12:29:42.715Z,39.63
2023-03-02T12:31:48.347Z,39.54
2023-03-02T12:33:52.864Z,39.69
2023-03-02T12:36:05.359Z,39.71
2023-03-02T12:38:13.920Z,39.65
2023-03-02T12:40:22.223Z,39.56
2023-03-02T12:42:30.589Z,40.00
2023-03-02T12:44:39.325Z,39.90
2023-03-02T12:46:46.506Z,39.95
2023-03-02T12:48:59.569Z,39.13
2023-03-02T12:51:04.734Z,38.87
2023-03-02T12:53:18.148Z,38.51
2023-03-02T12:55:21.019Z,38.42
2023-03-02T12:57:23.118Z,38.68
2023-03-02T12:59:28.651Z,38.47
2023-03-02T13:01:33.134Z,38.84
2023-03-02T13:03:46.520Z,38.25
2023-03-02T13:05:48.929Z,38.24
2023-03-02T13:07:59.368Z,37.79
2023-03-02T13:10:06.866Z,37.83
2023-03-02T13:12:14.411Z,37.78
2023-03-02T13:14:28.594Z,37.82
2023-03-02T13:16:34.328Z,37.73
2023-03-02T13:18:39.754Z,37.59
2023-03-02T13:20:44.335Z,37.16
2023-03-02T13:22:46.887Z,37.58
2023-03-02T13:24:55.536Z,37.59
2023-03-02T13:27:04.102Z,37.69
2023-03-02T13:29:21.099Z,37.59
2023-03-02T13:31:27.515Z,37.32
2023-03-02T13:33:31.820Z,36.93
2023-03-02T13:35:38.152Z,36.38
2023-03-02T13:37:44.269Z,36.49
2023-03-02T13:39:55.741Z,36.28
2023-03-02T13:42:04.830Z,35.93
2023-03-02T13:44:17.258Z,36.18
2023-03-02T13:46:20.283Z,35.81
2023-03-02T13:48:23.516Z,35.56
2023-03-02T13:50:30.418Z,35.64
2023-03-02T13:52:34.854Z,35.66
2023-03-02T13:54:58.021Z,35.21
2023-03-02T13:57:04.593Z,35.22
2023-03-02T13:59:15.490Z,35.49
2023-03-02T14:01:17.641Z,35.77
2023-03-02T14:03:23.477Z,35.61
2023-03-02T14:05:36.129Z,35.62
2023-03-02T14:07:38.806Z,36.03
2023-03-02T14:09:43.631Z,36.04
2023-03-02T14:11:49.556Z,36.00
2023-03-02T14:14:11.887Z,35.87
2023-03-02T14:16:15.580Z,35.59
2023-03-02T14:18:24.147Z,35.12
2023-03-02T14:20:26.569Z,35.36
2023-03-02T14:22:39.606Z,35.26
2023-03-02T14:24:50.694Z,35.42
2023-03-02T14:26:53.542Z,35.39
2023-03-02T14:29:05.384Z,35.46
2023-03-02T14:31:15.176Z,35.99
2023-03-02T14:33:17.824Z,35.75
2023-03-02T14:35:20.229Z,35.90
2023-03-02T14:37:27.997Z,35.76
2023-03-02T14:39:36.114Z,35.70
2023-03-02T14:41:52.498Z,35.42
2023-03-02T14:43:55.700Z,35.09
2023-03-02T14:45:58.138Z,35.65
2023-03-02T14:48:01.099Z,35.18
2023-03-02T14:50:05.428Z,35.07
2023-03-02T14:52:15.335Z,34.64
2023-03-02T14:54:24.129Z,33.97
2023-03-02T14:56:26.377Z,34.06
2023-03-02T14:58:32.846Z,34.13
2023-03-02T15:00:37.436Z,34.14
2023-03-02T15:02:39.831Z,34.35
2023-03-02T15:04:42.102Z,34.68
2023-03-02T15:06:44.298Z,34.95
2023-03-02T15:08:46.418Z,34.47
2023-03-02T15:10:49.663Z,34.65
2023-03-02T15:12:51.852Z,34.44
2023-03-02T15:14:53.955Z,34.29
2023-03-02T15:16:55.999Z,34.37
2023-03-02T15:19:00.494Z,34.08
2023-03-02T15:21:02.690Z,33.58
2023-03-02T15:23:05.049Z,33.52
2023-03-02T15:25:07.240Z,33.83
2023-03-02T15:27:09.421Z,34.25
2023-03-02T15:29:11.403Z,34.06
2023-03-02T15:31:16.050Z,34.43
2023-03-02T15:33:18.315Z,34.42
2023-03-02T15:35:20.760Z,33.95
2023-03-02T15:37:22.980Z,34.15
2023-03-02T15:39:25.030Z,34.27
2023-03-02T15:41:30.107Z,34.12
2023-03-02T15:43:32.649Z,34.14
2023-03-02T15:45:34.939Z,34.58
2023-03-02T15:47:38.206Z,34.84
2023-03-02T15:49:40.580Z,34.60
2023-03-02T15:51:47.356Z,34.75
2023-03-02T15:53:49.435Z,34.34
2023-03-02T15:55:51.709Z,34.62
2023-03-02T15:57:53.914Z,34.95
2023-03-02T15:59:56.173Z,35.22
2023-03-02T16:01:59.914Z,35.20
2023-03-02T16:04:07.768Z,35.39
2023-03-02T16:06:22.751Z,35.53
2023-03-02T16:08:31.155Z,35.47
2023-03-02T16:10:36.403Z,35.14
2023-03-02T16:12:38.716Z,35.27
2023-03-02T16:14:40.792Z,35.33
2023-03-02T16:16:44.117Z,35.06
2023-03-02T16:18:50.697Z,35.43
2023-03-02T16:20:53.133Z,35.65
2023-03-02T16:22:55.180Z,36.10
2023-03-02T16:24:57.275Z,36.02
2023-03-02T16:27:02.127Z,36.10
2023-03-02T16:29:05.797Z,36.55
2023-03-02T16:31:10.929Z,36.26
2023-03-02T16:33:16.931Z,36.75
2023-03-02T16:35:19.725Z,36.95
2023-03-02T16:37:22.397Z,37.27
2023-03-02T16:39:24.924Z,37.46
2023-03-02T16:41:27.412Z,37.75
2023-03-02T16:43:29.748Z,37.92
2023-03-02T16:45:33.303Z,38.39
2023-03-02T16:47:43.623Z,38.31
2023-03-02T16:49:57.070Z,38.66
2023-03-02T16:52:00.038Z,38.95
2023-03-02T16:54:02.734Z,38.90
2023-03-02T16:56:05.401Z,38.29
2023-03-02T16:58:07.549Z,38.46
2023-03-02T17:00:12.858Z,39.13
2023-03-02T17:02:16.010Z,39.23
2023-03-02T17:04:22.303Z,39.27
2023-03-02T17:06:24.989Z,39.98
2023-03-02T17:08:35.055Z,39.87
2023-03-02T17:10:38.646Z,39.90
2023-03-02T17:12:41.476Z,40.96
2023-03-02T17:14:43.690Z,40.14
2023-03-02T17:16:45.821Z,39.78
2023-03-02T17:18:49.531Z,39.89
2023-03-02T17:20:58.986Z,40.11
2023-03-02T17:23:04.468Z,40.45
2023-03-02T17:25:11.889Z,39.74
2023-03-02T17:27:25.089Z,40.15
2023-03-02T17:29:30.489Z,40.13
2023-03-02T17:31:33.378Z,40.05
2023-03-02T17:33:38.144Z,41.15
2023-03-02T17:35:41.336Z,40.62
2023-03-02T17:37:44.639Z,40.64
2023-03-02T17:39:50.551Z,41.09
2023-03-02T17:41:52.953Z,40.54
2023-03-02T17:43:55.040Z,41.07
2023-03-02T17:45:58.249Z,40.55
2023-03-02T17:48:01.101Z,41.43
2023-03-02T17:50:05.311Z,41.34
2023-03-02T17:52:14.061Z,41.86
2023-03-02T17:54:32.509Z,41.99
2023-03-02T17:56:40.285Z,41.98
2023-03-02T17:58:46.896Z,41.99
2023-03-02T18:00:49.634Z,42.64
2023-03-02T18:02:53.207Z,42.60
2023-03-02T18:04:55.961Z,42.24
2023-03-02T18:07:04.305Z,42.87
2023-03-02T18:09:09.305Z,42.75
2023-03-02T18:11:12.061Z,42.87
2023-03-02T18:13:17.114Z,42.63
2023-03-02T18:15:31.715Z,43.30
2023-03-02T18:17:39.411Z,43.17
2023-03-02T18:19:41.739Z,43.60
2023-03-02T18:21:46.795Z,43.67
2023-03-02T18:23:49.333Z,43.90
2023-03-02T18:25:51.640Z,43.40
2023-03-02T18:27:56.262Z,43.84
2023-03-02T18:29:58.969Z,43.36
2023-03-02T18:32:01.337Z,43.46
2023-03-02T18:34:04.482Z,43.32
2023-03-02T18:36:07.273Z,43.41
2023-03-02T18:38:09.586Z,43.71
2023-03-02T18:40:12.476Z,44.14
2023-03-02T18:42:14.772Z,44.15
2023-03-02T18:44:18.192Z,44.40
2023-03-02T18:46:24.354Z,44.57
2023-03-02T18:48:29.130Z,44.25
2023-03-02T18:50:31.958Z,43.76
2023-03-02T18:52:34.733Z,44.63
2023-03-02T18:54:37.036Z,44.87
2023-03-02T18:56:42.803Z,44.82
2023-03-02T18:58:45.719Z,44.70
2023-03-02T19:00:49.125Z,44.66
2023-03-02T19:02:54.660Z,44.71
2023-03-02T19:04:56.708Z,44.82
2023-03-02T19:07:01.036Z,45.00
2023-03-02T19:09:03.526Z,45.03
2023-03-02T19:11:07.136Z,45.24
2023-03-02T19:13:11.837Z,44.79
2023-03-02T19:15:14.378Z,45.03
2023-03-02T19:17:16.777Z,45.72
2023-03-02T19:19:19.288Z,45.97
2023-03-02T19:21:21.695Z,45.80
2023-03-02T19:23:25.444Z,46.08
2023-03-02T19:25:28.414Z,46.33
2023-03-02T19:27:30.669Z,46.88
2023-03-02T19:29:34.907Z,46.71
2023-03-02T19:31:40.812Z,46.46
2023-03-02T19:33:44.969Z,46.76
2023-03-02T19:35:47.222Z,46.83
2023-03-02T19:37:49.447Z,46.49
2023-03-02T19:39:51.680Z,47.05
2023-03-02T19:41:54.470Z,46.65
2023-03-02T19:43:57.186Z,47.88
2023-03-02T19:45:59.408Z,46.86
2023-03-02T19:48:03.197Z,47.70
2023-03-02T19:50:06.798Z,47.46
2023-03-02T19:52:09.385Z,47.94
2023-03-02T19:54:11.529Z,47.36
2023-03-02T19:56:15.268Z,48.16
2023-03-02T19:58:19.732Z,47.73
2023-03-02T20:00:23.214Z,48.05
2023-03-02T20:02:25.372Z,48.08
2023-03-02T20:04:27.933Z,48.25
2023-03-02T20:06:33.610Z,48.50
2023-03-02T20:08:36.581Z,47.72
2023-03-02T20:10:42.163Z,48.44
2023-03-02T20:12:45.153Z,48.47
2023-03-02T20:14:50.672Z,48.07
2023-03-02T20:16:55.694Z,48.06
2023-03-02T20:19:02.663Z,48.69
2023-03-02T20:21:07.435Z,48.13
2023-03-02T20:23:10.588Z,48.15
2023-03-02T20:25:14.967Z,48.97
2023-03-02T20:27:19.873Z,49.00
2023-03-02T20:29:23.068Z,48.71
2023-03-02T20:31:27.664Z,48.68
2023-03-02T20:33:35.177Z,49.24
2023-03-02T20:35:41.353Z,49.12
2023-03-02T20:37:45.558Z,49.74
2023-03-02T20:39:49.614Z,49.18
2023-03-02T20:41:55.833Z,49.37
2023-03-02T20:43:59.281Z,49.44
2023-03-02T20:46:04.190Z,49.91
2023-03-02T20:48:07.021Z,50.04
2023-03-02T20:50:13.399Z,50.15
2023-03-02T20:52:15.409Z,50.26
2023-03-02T20:54:17.868Z,50.38
2023-03-02T20:56:21.683Z,50.67
2023-03-02T20:58:26.041Z,50.46
2023-03-02T21:00:30.217Z,50.30
2023-03-02T21:02:32.353Z,50.57
2023-03-02T21:04:36.219Z,50.44
2023-03-02T21:06:39.148Z,50.62
2023-03-02T21:08:42.028Z,50.90
2023-03-02T21:10:46.630Z,50.93
2023-03-02T21:12:49.198Z,51.11
2023-03-02T21:14:51.694Z,51.02
2023-03-02T21:16:54.271Z,51.32
2023-03-02T21:18:56.615Z,51.21
2023-03-02T21:20:58.616Z,51.28
2023-03-02T21:23:00.715Z,51.68
2023-03-02T21:25:02.806Z,51.62
2023-03-02T21:27:07.313Z,51.55
2023-03-02T21:29:12.232Z,51.64
2023-03-02T21:31:18.466Z,51.79
2023-03-02T21:33:21.155Z,52.01
2023-03-02T21:35:24.355Z,52.20
2023-03-02T21:37:27.355Z,52.05
2023-03-02T21:39:29.455Z,52.25
2023-03-02T21:41:31.508Z,51.75
2023-03-02T21:43:34.011Z,51.99
2023-03-02T21:45:37.274Z,52.35
2023-03-02T21:47:42.127Z,52.74
2023-03-02T21:49:47.068Z,52.80
2023-03-02T21:51:50.030Z,52.59
2023-03-02T21:53:53.519Z,52.62
2023-03-02T21:55:55.450Z,52.61
2023-03-02T21:57:57.941Z,52.53
2023-03-02T22:00:00.812Z,52.74
2023-03-02T22:02:03.006Z,52.59
2023-03-02T22:04:05.782Z,53.07
2023-03-02T22:06:07.909Z,52.71
2023-03-02T22:08:16.699Z,52.69
2023-03-02T22:10:27.012Z,52.99
2023-03-02T22:12:29.273Z,53.17
2023-03-02T22:14:31.472Z,53.16
2023-03-02T22:16:38.401Z,53.31
2023-03-02T22:18:40.944Z,53.14
2023-03-02T22:20:44.984Z,53.05
2023-03-02T22:22:49.958Z,53.11
2023-03-02T22:24:54.178Z,53.41
2023-03-02T22:27:00.817Z,53.35
2023-03-02T22:29:16.153Z,53.31
2023-03-02T22:31:24.076Z,53.95
2023-03-02T22:33:28.312Z,53.81
2023-03-02T22:35:30.610Z,53.97
2023-03-02T22:37:35.163Z,54.08
2023-03-02T22:39:37.349Z,54.04
2023-03-02T22:41:39.843Z,53.98
2023-03-02T22:43:42.075Z,54.08
2023-03-02T22:45:44.153Z,54.45
2023-03-02T22:47:51.338Z,53.98
2023-03-02T22:49:58.942Z,54.18
2023-03-02T22:52:03.595Z,54.15
2023-03-02T22:54:16.822Z,54.05
2023-03-02T22:56:25.873Z,53.90
2023-03-02T22:58:35.163Z,53.57
2023-03-02T23:00:43.235Z,53.74
2023-03-02T23:02:46.752Z,53.91
2023-03-02T23:04:50.664Z,53.70
2023-03-02T23:06:57.061Z,53.85
2023-03-02T23:09:02.354Z,53.48
2023-03-02T23:11:15.881Z,54.03
2023-03-02T23:13:27.433Z,54.02
2023-03-02T23:15:30.102Z,53.89
2023-03-02T23:17:39.003Z,53.88
2023-03-02T23:19:41.662Z,54.06
2023-03-02T23:21:46.427Z,53.98
2023-03-02T23:23:52.083Z,53.96
2023-03-02T23:25:54.259Z,54.18
2023-03-02T23:27:57.313Z,54.10
2023-03-02T23:30:00.332Z,54.19
2023-03-02T23:32:03.727Z,53.99
2023-03-02T23:34:06.358Z,53.98
2023-03-02T23:36:08.701Z,54.00
2023-03-02T23:38:10.581Z,53.93
2023-03-02T23:40:12.849Z,53.91
2023-03-02T23:42:14.744Z,53.99
2023-03-02T23:44:16.666Z,53.69
2023-03-02T23:46:18.508Z,53.75
2023-03-02T23:48:20.404Z,53.66
2023-03-02T23:50:22.380Z,53.98
2023-03-02T23:52:24.226Z,53.84
2023-03-02T23:54:26.398Z,53.89
2023-03-02T23:56:28.243Z,54.07
2023-03-02T23:58:30.145Z,54.03
